sensor_id;sensor_type;location;lat;lon;timestamp;P1;P2;P0
54305;PMS7003;66145;45.188;5.712;2023-05-18T00:00:59;1.00;1.00;1.00
54305;PMS7003;66145;45.188;5.712;2023-05-18T00:03:27;1.50;1.50;0.75
54305;PMS7003;66145;45.188;5.712;2023-05-18T00:05:54;2.00;2.00;2.00
54305;PMS7003;66145;45.188;5.712;2023-05-18T00:08:21;1.50;1.50;1.00
54305;PMS7003;66145;45.188;5.712;2023-05-18T00:10:47;1.67;1.67;1.00
54305;PMS7003;66145;45.188;5.712;2023-05-18T00:13:12;1.00;1.00;1.00
54305;PMS7003;66145;45.188;5.712;2023-05-18T00:15:38;2.00;2.00;1.67
54305;PMS7003;66145;45.188;5.712;2023-05-18T00:18:03;1.00;1.00;1.00
54305;PMS7003;66145;45.188;5.712;2023-05-18T00:20:28;1.00;1.00;1.00
54305;PMS7003;66145;45.188;5.712;2023-05-18T00:22:54;1.33;1.33;1.33
54305;PMS7003;66145;45.188;5.712;2023-05-18T00:25:19;2.33;2.33;2.00
54305;PMS7003;66145;45.188;5.712;2023-05-18T00:27:45;1.00;1.00;1.00
54305;PMS7003;66145;45.188;5.712;2023-05-18T00:30:10;2.00;2.00;2.00
54305;PMS7003;66145;45.188;5.712;2023-05-18T00:32:36;0.75;0.75;0.75
54305;PMS7003;66145;45.188;5.712;2023-05-18T00:35:02;1.00;1.00;1.00
54305;PMS7003;66145;45.188;5.712;2023-05-18T00:37:27;2.00;0.67;0.67
54305;PMS7003;66145;45.188;5.712;2023-05-18T00:39:52;1.33;1.33;1.00
54305;PMS7003;66145;45.188;5.712;2023-05-18T00:42:18;2.00;2.00;1.67
54305;PMS7003;66145;45.188;5.712;2023-05-18T00:44:43;2.00;1.00;1.00
54305;PMS7003;66145;45.188;5.712;2023-05-18T00:47:08;2.00;2.00;2.00
54305;PMS7003;66145;45.188;5.712;2023-05-18T00:49:34;2.67;2.67;2.00
54305;PMS7003;66145;45.188;5.712;2023-05-18T00:51:59;2.00;2.00;2.00
54305;PMS7003;66145;45.188;5.712;2023-05-18T00:54:26;1.25;1.25;1.00
54305;PMS7003;66145;45.188;5.712;2023-05-18T00:56:52;1.00;1.00;1.00
54305;PMS7003;66145;45.188;5.712;2023-05-18T00:59:17;1.00;1.00;1.00
54305;PMS7003;66145;45.188;5.712;2023-05-18T01:01:43;1.00;1.00;1.00
54305;PMS7003;66145;45.188;5.712;2023-05-18T01:04:10;2.00;2.00;2.00
54305;PMS7003;66145;45.188;5.712;2023-05-18T01:06:38;1.50;1.50;1.00
54305;PMS7003;66145;45.188;5.712;2023-05-18T01:09:05;1.00;1.00;0.75
54305;PMS7003;66145;45.188;5.712;2023-05-18T01:11:37;3.25;2.00;2.00
54305;PMS7003;66145;45.188;5.712;2023-05-18T01:14:18;1.75;1.75;1.75
54305;PMS7003;66145;45.188;5.712;2023-05-18T01:17:01;2.75;2.75;2.00
54305;PMS7003;66145;45.188;5.712;2023-05-18T01:22:32;2.75;2.75;2.00
54305;PMS7003;66145;45.188;5.712;2023-05-18T01:28:05;1.75;1.75;1.50
54305;PMS7003;66145;45.188;5.712;2023-05-18T01:30:38;2.00;2.00;2.00
54305;PMS7003;66145;45.188;5.712;2023-05-18T01:33:08;0.80;0.80;0.60
54305;PMS7003;66145;45.188;5.712;2023-05-18T01:35:35;2.00;2.00;1.25
54305;PMS7003;66145;45.188;5.712;2023-05-18T01:38:01;2.00;2.00;2.00
54305;PMS7003;66145;45.188;5.712;2023-05-18T01:40:30;3.00;1.75;1.50
54305;PMS7003;66145;45.188;5.712;2023-05-18T01:43:02;3.00;3.00;2.00
54305;PMS7003;66145;45.188;5.712;2023-05-18T01:45:36;1.75;1.75;1.75
54305;PMS7003;66145;45.188;5.712;2023-05-18T01:48:06;1.75;1.75;1.75
54305;PMS7003;66145;45.188;5.712;2023-05-18T01:50:36;1.50;1.50;1.25
54305;PMS7003;66145;45.188;5.712;2023-05-18T01:53:08;2.00;2.00;2.00
54305;PMS7003;66145;45.188;5.712;2023-05-18T01:55:36;2.60;2.40;2.00
54305;PMS7003;66145;45.188;5.712;2023-05-18T01:58:04;2.00;2.00;1.25
54305;PMS7003;66145;45.188;5.712;2023-05-18T02:00:30;1.20;1.20;1.00
54305;PMS7003;66145;45.188;5.712;2023-05-18T02:02:57;3.00;3.00;2.80
54305;PMS7003;66145;45.188;5.712;2023-05-18T02:05:22;2.00;2.00;1.75
54305;PMS7003;66145;45.188;5.712;2023-05-18T02:07:47;2.00;2.00;2.00
54305;PMS7003;66145;45.188;5.712;2023-05-18T02:10:13;2.75;2.75;2.00
54305;PMS7003;66145;45.188;5.712;2023-05-18T02:12:38;2.75;2.75;1.50
54305;PMS7003;66145;45.188;5.712;2023-05-18T02:15:05;2.00;2.00;2.00
54305;PMS7003;66145;45.188;5.712;2023-05-18T02:17:31;2.75;2.75;2.25
54305;PMS7003;66145;45.188;5.712;2023-05-18T02:19:57;2.60;2.60;2.00
54305;PMS7003;66145;45.188;5.712;2023-05-18T02:22:23;3.25;3.25;3.00
54305;PMS7003;66145;45.188;5.712;2023-05-18T02:24:48;3.33;3.33;3.33
54305;PMS7003;66145;45.188;5.712;2023-05-18T02:27:14;4.00;4.00;3.00
54305;PMS7003;66145;45.188;5.712;2023-05-18T02:29:40;3.00;3.00;3.00
54305;PMS7003;66145;45.188;5.712;2023-05-18T02:32:05;2.33;2.33;2.33
54305;PMS7003;66145;45.188;5.712;2023-05-18T02:34:31;4.00;4.00;3.00
54305;PMS7003;66145;45.188;5.712;2023-05-18T02:36:57;3.00;3.00;2.75
54305;PMS7003;66145;45.188;5.712;2023-05-18T02:39:28;3.50;3.50;2.75
54305;PMS7003;66145;45.188;5.712;2023-05-18T02:41:53;5.00;3.67;3.00
54305;PMS7003;66145;45.188;5.712;2023-05-18T02:44:19;4.00;4.00;3.00
54305;PMS7003;66145;45.188;5.712;2023-05-18T02:46:44;6.00;4.00;4.00
54305;PMS7003;66145;45.188;5.712;2023-05-18T02:49:09;5.00;3.67;2.67
54305;PMS7003;66145;45.188;5.712;2023-05-18T02:51:35;4.00;4.00;3.00
54305;PMS7003;66145;45.188;5.712;2023-05-18T02:54:01;6.00;5.25;4.25
54305;PMS7003;66145;45.188;5.712;2023-05-18T02:56:26;6.00;5.00;4.00
54305;PMS7003;66145;45.188;5.712;2023-05-18T02:58:52;4.00;4.00;3.00
54305;PMS7003;66145;45.188;5.712;2023-05-18T03:01:21;6.00;4.25;3.00
54305;PMS7003;66145;45.188;5.712;2023-05-18T03:03:50;4.20;4.20;3.80
54305;PMS7003;66145;45.188;5.712;2023-05-18T03:06:17;4.75;4.75;4.00
54305;PMS7003;66145;45.188;5.712;2023-05-18T03:08:47;4.00;4.00;2.50
54305;PMS7003;66145;45.188;5.712;2023-05-18T03:11:15;3.25;3.25;2.25
54305;PMS7003;66145;45.188;5.712;2023-05-18T03:13:41;5.33;4.00;3.33
54305;PMS7003;66145;45.188;5.712;2023-05-18T03:16:07;5.25;4.00;4.00
54305;PMS7003;66145;45.188;5.712;2023-05-18T03:18:33;4.00;4.00;3.00
54305;PMS7003;66145;45.188;5.712;2023-05-18T03:20:58;7.67;5.00;4.00
54305;PMS7003;66145;45.188;5.712;2023-05-18T03:23:25;5.00;5.00;4.00
54305;PMS7003;66145;45.188;5.712;2023-05-18T03:25:51;3.00;3.00;2.67
54305;PMS7003;66145;45.188;5.712;2023-05-18T03:28:18;4.00;4.00;3.75
54305;PMS7003;66145;45.188;5.712;2023-05-18T03:30:44;3.75;3.75;3.75
54305;PMS7003;66145;45.188;5.712;2023-05-18T03:33:10;4.00;4.00;3.00
54305;PMS7003;66145;45.188;5.712;2023-05-18T03:35:36;4.00;4.00;3.75
54305;PMS7003;66145;45.188;5.712;2023-05-18T03:38:03;3.20;3.20;2.40
54305;PMS7003;66145;45.188;5.712;2023-05-18T03:40:28;3.00;3.00;3.00
54305;PMS7003;66145;45.188;5.712;2023-05-18T03:42:54;3.00;3.00;2.33
54305;PMS7003;66145;45.188;5.712;2023-05-18T03:45:19;3.67;3.67;3.00
54305;PMS7003;66145;45.188;5.712;2023-05-18T03:47:46;2.75;2.75;2.00
54305;PMS7003;66145;45.188;5.712;2023-05-18T03:50:12;6.00;5.00;4.00
54305;PMS7003;66145;45.188;5.712;2023-05-18T03:52:37;3.33;3.33;3.00
54305;PMS7003;66145;45.188;5.712;2023-05-18T03:55:03;2.75;2.75;2.00
54305;PMS7003;66145;45.188;5.712;2023-05-18T03:57:29;3.67;3.67;3.00
54305;PMS7003;66145;45.188;5.712;2023-05-18T03:59:56;3.50;3.50;3.00
54305;PMS7003;66145;45.188;5.712;2023-05-18T04:02:22;5.33;4.33;3.00
54305;PMS7003;66145;45.188;5.712;2023-05-18T04:04:47;3.00;3.00;2.00
54305;PMS7003;66145;45.188;5.712;2023-05-18T04:07:13;3.33;3.33;2.67
54305;PMS7003;66145;45.188;5.712;2023-05-18T04:09:45;3.75;3.75;3.00
54305;PMS7003;66145;45.188;5.712;2023-05-18T04:12:11;2.00;2.00;1.00
54305;PMS7003;66145;45.188;5.712;2023-05-18T04:14:37;3.00;3.00;2.00
54305;PMS7003;66145;45.188;5.712;2023-05-18T04:17:02;3.33;3.33;3.00
54305;PMS7003;66145;45.188;5.712;2023-05-18T04:19:32;2.40;2.40;2.00
54305;PMS7003;66145;45.188;5.712;2023-05-18T04:22:01;4.00;4.00;4.00
54305;PMS7003;66145;45.188;5.712;2023-05-18T04:24:30;3.80;3.20;2.40
54305;PMS7003;66145;45.188;5.712;2023-05-18T04:26:59;2.00;2.00;2.00
54305;PMS7003;66145;45.188;5.712;2023-05-18T04:29:26;3.00;3.00;2.50
54305;PMS7003;66145;45.188;5.712;2023-05-18T04:31:52;3.00;3.00;2.50
54305;PMS7003;66145;45.188;5.712;2023-05-18T04:34:25;3.00;3.00;2.40
54305;PMS7003;66145;45.188;5.712;2023-05-18T04:36:53;3.00;3.00;3.00
54305;PMS7003;66145;45.188;5.712;2023-05-18T04:39:20;3.20;3.20;3.00
54305;PMS7003;66145;45.188;5.712;2023-05-18T04:41:46;2.80;2.80;2.00
54305;PMS7003;66145;45.188;5.712;2023-05-18T04:44:11;4.00;4.00;2.75
54305;PMS7003;66145;45.188;5.712;2023-05-18T04:46:38;2.00;2.00;2.00
54305;PMS7003;66145;45.188;5.712;2023-05-18T04:49:04;2.25;2.25;2.00
54305;PMS7003;66145;45.188;5.712;2023-05-18T04:51:30;3.25;3.25;3.00
54305;PMS7003;66145;45.188;5.712;2023-05-18T04:53:58;3.25;3.25;2.25
54305;PMS7003;66145;45.188;5.712;2023-05-18T04:56:24;3.67;3.00;2.00
54305;PMS7003;66145;45.188;5.712;2023-05-18T04:58:49;2.00;2.00;2.00
54305;PMS7003;66145;45.188;5.712;2023-05-18T05:01:15;2.50;2.50;2.25
54305;PMS7003;66145;45.188;5.712;2023-05-18T05:03:41;2.33;2.33;2.00
54305;PMS7003;66145;45.188;5.712;2023-05-18T05:06:06;2.33;2.33;2.00
54305;PMS7003;66145;45.188;5.712;2023-05-18T05:08:32;3.00;2.67;2.00
54305;PMS7003;66145;45.188;5.712;2023-05-18T05:10:58;2.80;2.80;2.00
54305;PMS7003;66145;45.188;5.712;2023-05-18T05:13:24;2.33;2.33;2.00
54305;PMS7003;66145;45.188;5.712;2023-05-18T05:15:49;2.67;2.67;2.00
54305;PMS7003;66145;45.188;5.712;2023-05-18T05:18:15;2.33;2.33;1.67
54305;PMS7003;66145;45.188;5.712;2023-05-18T05:20:40;4.00;2.67;1.67
54305;PMS7003;66145;45.188;5.712;2023-05-18T05:23:05;1.00;1.00;1.00
54305;PMS7003;66145;45.188;5.712;2023-05-18T05:25:31;4.33;3.33;2.33
54305;PMS7003;66145;45.188;5.712;2023-05-18T05:27:56;2.00;2.00;2.00
54305;PMS7003;66145;45.188;5.712;2023-05-18T05:30:21;0.00;0.00;0.00
54305;PMS7003;66145;45.188;5.712;2023-05-18T05:32:47;2.00;2.00;2.00
54305;PMS7003;66145;45.188;5.712;2023-05-18T05:35:12;3.67;2.00;2.00
54305;PMS7003;66145;45.188;5.712;2023-05-18T05:37:37;3.67;3.67;2.33
54305;PMS7003;66145;45.188;5.712;2023-05-18T05:40:03;2.33;2.33;2.00
54305;PMS7003;66145;45.188;5.712;2023-05-18T05:42:31;2.20;2.20;1.80
54305;PMS7003;66145;45.188;5.712;2023-05-18T05:44:57;1.75;1.75;1.00
54305;PMS7003;66145;45.188;5.712;2023-05-18T05:47:22;2.00;2.00;1.67
54305;PMS7003;66145;45.188;5.712;2023-05-18T05:49:48;3.00;3.00;2.33
54305;PMS7003;66145;45.188;5.712;2023-05-18T05:52:13;2.00;2.00;2.00
54305;PMS7003;66145;45.188;5.712;2023-05-18T05:54:39;4.00;2.25;2.00
54305;PMS7003;66145;45.188;5.712;2023-05-18T05:57:05;2.75;2.75;1.75
54305;PMS7003;66145;45.188;5.712;2023-05-18T05:59:30;4.00;2.25;2.00
54305;PMS7003;66145;45.188;5.712;2023-05-18T06:01:56;2.00;2.00;2.00
54305;PMS7003;66145;45.188;5.712;2023-05-18T06:04:21;4.00;2.33;2.00
54305;PMS7003;66145;45.188;5.712;2023-05-18T06:06:46;2.67;2.67;2.00
54305;PMS7003;66145;45.188;5.712;2023-05-18T06:09:12;3.00;3.00;2.00
54305;PMS7003;66145;45.188;5.712;2023-05-18T06:11:37;2.67;2.67;2.00
54305;PMS7003;66145;45.188;5.712;2023-05-18T06:14:03;2.67;2.67;2.00
54305;PMS7003;66145;45.188;5.712;2023-05-18T06:16:28;2.67;2.67;2.00
54305;PMS7003;66145;45.188;5.712;2023-05-18T06:18:54;3.33;2.67;2.00
54305;PMS7003;66145;45.188;5.712;2023-05-18T06:21:19;3.00;3.00;2.33
54305;PMS7003;66145;45.188;5.712;2023-05-18T06:23:45;2.00;2.00;2.00
54305;PMS7003;66145;45.188;5.712;2023-05-18T06:26:10;3.00;3.00;2.00
54305;PMS7003;66145;45.188;5.712;2023-05-18T06:28:36;3.00;3.00;2.67
54305;PMS7003;66145;45.188;5.712;2023-05-18T06:31:01;2.00;2.00;1.75
54305;PMS7003;66145;45.188;5.712;2023-05-18T06:33:27;4.00;2.67;2.00
54305;PMS7003;66145;45.188;5.712;2023-05-18T06:35:52;2.50;2.50;2.25
54305;PMS7003;66145;45.188;5.712;2023-05-18T06:38:18;3.00;3.00;2.33
54305;PMS7003;66145;45.188;5.712;2023-05-18T06:40:43;4.00;4.00;3.00
54305;PMS7003;66145;45.188;5.712;2023-05-18T06:43:09;2.00;2.00;2.00
54305;PMS7003;66145;45.188;5.712;2023-05-18T06:45:34;2.00;2.00;2.00
54305;PMS7003;66145;45.188;5.712;2023-05-18T06:48:00;2.00;2.00;2.00
54305;PMS7003;66145;45.188;5.712;2023-05-18T06:50:25;2.25;2.25;2.00
54305;PMS7003;66145;45.188;5.712;2023-05-18T06:52:51;0.33;0.33;0.33
54305;PMS7003;66145;45.188;5.712;2023-05-18T06:55:16;2.00;2.00;1.67
54305;PMS7003;66145;45.188;5.712;2023-05-18T06:57:42;3.67;2.67;2.00
54305;PMS7003;66145;45.188;5.712;2023-05-18T07:00:07;2.67;2.67;2.00
54305;PMS7003;66145;45.188;5.712;2023-05-18T07:02:34;2.40;2.40;2.20
54305;PMS7003;66145;45.188;5.712;2023-05-18T07:05:00;2.00;2.00;1.33
54305;PMS7003;66145;45.188;5.712;2023-05-18T07:07:28;2.75;2.75;2.75
54305;PMS7003;66145;45.188;5.712;2023-05-18T07:09:54;2.33;2.33;2.00
54305;PMS7003;66145;45.188;5.712;2023-05-18T07:12:19;1.67;1.67;1.33
54305;PMS7003;66145;45.188;5.712;2023-05-18T07:14:45;3.00;3.00;2.00
54305;PMS7003;66145;45.188;5.712;2023-05-18T07:17:10;3.00;3.00;2.33
54305;PMS7003;66145;45.188;5.712;2023-05-18T07:19:35;2.00;2.00;2.00
54305;PMS7003;66145;45.188;5.712;2023-05-18T07:22:01;4.00;4.00;3.00
54305;PMS7003;66145;45.188;5.712;2023-05-18T07:24:28;1.75;1.75;1.75
54305;PMS7003;66145;45.188;5.712;2023-05-18T07:26:53;3.00;3.00;2.00
54305;PMS7003;66145;45.188;5.712;2023-05-18T07:29:19;3.00;3.00;2.00
54305;PMS7003;66145;45.188;5.712;2023-05-18T07:31:44;2.33;2.33;2.00
54305;PMS7003;66145;45.188;5.712;2023-05-18T07:34:10;3.00;3.00;2.00
54305;PMS7003;66145;45.188;5.712;2023-05-18T07:36:35;2.67;2.67;2.67
54305;PMS7003;66145;45.188;5.712;2023-05-18T07:39:00;2.67;2.67;2.00
54305;PMS7003;66145;45.188;5.712;2023-05-18T07:41:26;1.50;1.50;1.00
54305;PMS7003;66145;45.188;5.712;2023-05-18T07:43:52;3.75;3.75;2.75
54305;PMS7003;66145;45.188;5.712;2023-05-18T07:46:17;3.00;3.00;3.00
54305;PMS7003;66145;45.188;5.712;2023-05-18T07:48:43;3.33;3.33;3.00
54305;PMS7003;66145;45.188;5.712;2023-05-18T07:51:12;4.75;3.00;2.00
54305;PMS7003;66145;45.188;5.712;2023-05-18T07:53:37;3.67;3.67;2.33
54305;PMS7003;66145;45.188;5.712;2023-05-18T07:56:04;3.00;3.00;3.00
54305;PMS7003;66145;45.188;5.712;2023-05-18T07:58:31;4.00;4.00;3.00
54305;PMS7003;66145;45.188;5.712;2023-05-18T08:00:57;5.00;3.67;2.67
54305;PMS7003;66145;45.188;5.712;2023-05-18T08:03:22;3.00;3.00;1.67
54305;PMS7003;66145;45.188;5.712;2023-05-18T08:05:48;2.33;2.33;2.00
54305;PMS7003;66145;45.188;5.712;2023-05-18T08:08:13;4.00;4.00;3.00
54305;PMS7003;66145;45.188;5.712;2023-05-18T08:10:39;3.67;3.67;2.33
54305;PMS7003;66145;45.188;5.712;2023-05-18T08:13:05;3.50;3.50;2.00
54305;PMS7003;66145;45.188;5.712;2023-05-18T08:15:30;1.33;1.33;1.00
54305;PMS7003;66145;45.188;5.712;2023-05-18T08:17:56;5.00;5.00;3.33
54305;PMS7003;66145;45.188;5.712;2023-05-18T08:20:21;3.67;3.00;3.00
54305;PMS7003;66145;45.188;5.712;2023-05-18T08:22:47;2.67;2.67;2.00
54305;PMS7003;66145;45.188;5.712;2023-05-18T08:25:12;3.00;3.00;2.00
54305;PMS7003;66145;45.188;5.712;2023-05-18T08:27:38;2.00;2.00;2.00
54305;PMS7003;66145;45.188;5.712;2023-05-18T08:30:04;3.00;3.00;3.00
54305;PMS7003;66145;45.188;5.712;2023-05-18T08:32:29;3.00;3.00;2.00
54305;PMS7003;66145;45.188;5.712;2023-05-18T08:34:56;2.25;2.25;1.75
54305;PMS7003;66145;45.188;5.712;2023-05-18T08:37:22;4.25;4.25;3.25
54305;PMS7003;66145;45.188;5.712;2023-05-18T08:39:52;1.00;1.00;0.75
54305;PMS7003;66145;45.188;5.712;2023-05-18T08:42:20;2.67;2.67;2.00
54305;PMS7003;66145;45.188;5.712;2023-05-18T08:45:09;2.00;2.00;2.00
54305;PMS7003;66145;45.188;5.712;2023-05-18T08:47:38;3.00;3.00;3.00
54305;PMS7003;66145;45.188;5.712;2023-05-18T08:50:04;2.50;2.50;1.75
54305;PMS7003;66145;45.188;5.712;2023-05-18T08:52:33;3.00;3.00;2.50
54305;PMS7003;66145;45.188;5.712;2023-05-18T08:55:02;2.25;2.25;2.00
54305;PMS7003;66145;45.188;5.712;2023-05-18T08:57:31;3.25;3.25;3.00
54305;PMS7003;66145;45.188;5.712;2023-05-18T09:00:00;3.50;3.00;2.50
54305;PMS7003;66145;45.188;5.712;2023-05-18T09:02:27;2.25;2.25;2.00
54305;PMS7003;66145;45.188;5.712;2023-05-18T09:04:53;4.25;4.25;3.25
54305;PMS7003;66145;45.188;5.712;2023-05-18T09:07:21;3.25;3.25;3.00
54305;PMS7003;66145;45.188;5.712;2023-05-18T09:09:47;3.75;3.75;3.50
54305;PMS7003;66145;45.188;5.712;2023-05-18T09:12:13;1.75;1.75;1.75
54305;PMS7003;66145;45.188;5.712;2023-05-18T09:14:40;3.25;3.25;3.00
54305;PMS7003;66145;45.188;5.712;2023-05-18T09:17:13;5.00;2.75;2.00
54305;PMS7003;66145;45.188;5.712;2023-05-18T09:19:39;3.00;3.00;2.33
54305;PMS7003;66145;45.188;5.712;2023-05-18T09:22:04;4.00;3.33;2.33
54305;PMS7003;66145;45.188;5.712;2023-05-18T09:24:31;3.00;3.00;2.00
54305;PMS7003;66145;45.188;5.712;2023-05-18T09:26:57;4.00;2.50;2.00
54305;PMS7003;66145;45.188;5.712;2023-05-18T09:29:22;2.00;2.00;1.75
54305;PMS7003;66145;45.188;5.712;2023-05-18T09:34:23;3.00;3.00;3.00
54305;PMS7003;66145;45.188;5.712;2023-05-18T09:36:49;0.67;0.67;0.33
54305;PMS7003;66145;45.188;5.712;2023-05-18T09:39:17;4.00;4.00;3.00
54305;PMS7003;66145;45.188;5.712;2023-05-18T09:41:42;3.67;3.67;3.00
54305;PMS7003;66145;45.188;5.712;2023-05-18T09:44:08;3.33;3.33;3.00
54305;PMS7003;66145;45.188;5.712;2023-05-18T09:46:35;4.00;4.00;2.75
54305;PMS7003;66145;45.188;5.712;2023-05-18T09:49:02;3.50;2.50;1.50
54305;PMS7003;66145;45.188;5.712;2023-05-18T09:51:28;5.50;3.00;2.25
54305;PMS7003;66145;45.188;5.712;2023-05-18T09:53:54;3.00;3.00;2.67
54305;PMS7003;66145;45.188;5.712;2023-05-18T09:56:21;3.75;3.75;3.50
54305;PMS7003;66145;45.188;5.712;2023-05-18T09:58:48;3.75;3.75;3.00
54305;PMS7003;66145;45.188;5.712;2023-05-18T10:01:13;3.00;3.00;2.67
54305;PMS7003;66145;45.188;5.712;2023-05-18T10:03:39;4.00;4.00;3.00
54305;PMS7003;66145;45.188;5.712;2023-05-18T10:06:08;4.00;4.00;3.00
54305;PMS7003;66145;45.188;5.712;2023-05-18T10:08:36;3.00;3.00;2.75
54305;PMS7003;66145;45.188;5.712;2023-05-18T10:11:02;3.33;3.33;3.00
54305;PMS7003;66145;45.188;5.712;2023-05-18T10:13:28;3.67;3.67;3.00
54305;PMS7003;66145;45.188;5.712;2023-05-18T10:15:56;4.25;2.75;1.75
54305;PMS7003;66145;45.188;5.712;2023-05-18T10:18:26;4.00;4.00;3.00
54305;PMS7003;66145;45.188;5.712;2023-05-18T10:20:55;4.75;4.75;3.50
54305;PMS7003;66145;45.188;5.712;2023-05-18T10:23:22;4.25;4.25;3.00
54305;PMS7003;66145;45.188;5.712;2023-05-18T10:25:49;1.50;1.50;0.50
54305;PMS7003;66145;45.188;5.712;2023-05-18T10:28:24;3.25;3.25;2.75
54305;PMS7003;66145;45.188;5.712;2023-05-18T10:30:53;2.75;2.75;2.25
54305;PMS7003;66145;45.188;5.712;2023-05-18T10:33:19;3.50;3.50;2.75
54305;PMS7003;66145;45.188;5.712;2023-05-18T10:35:47;4.50;4.50;3.25
54305;PMS7003;66145;45.188;5.712;2023-05-18T10:38:15;3.00;3.00;3.00
54305;PMS7003;66145;45.188;5.712;2023-05-18T10:40:43;5.00;3.50;3.00
54305;PMS7003;66145;45.188;5.712;2023-05-18T10:43:10;3.75;3.75;3.00
54305;PMS7003;66145;45.188;5.712;2023-05-18T10:45:37;4.25;3.75;2.50
54305;PMS7003;66145;45.188;5.712;2023-05-18T10:48:04;4.00;4.00;3.00
54305;PMS7003;66145;45.188;5.712;2023-05-18T10:50:33;5.75;5.75;3.75
54305;PMS7003;66145;45.188;5.712;2023-05-18T10:53:00;2.75;2.75;2.00
54305;PMS7003;66145;45.188;5.712;2023-05-18T10:55:27;3.25;3.25;2.50
54305;PMS7003;66145;45.188;5.712;2023-05-18T10:57:56;5.50;3.75;3.50
54305;PMS7003;66145;45.188;5.712;2023-05-18T11:00:25;5.25;3.00;3.00
54305;PMS7003;66145;45.188;5.712;2023-05-18T11:02:50;3.33;3.33;3.00
54305;PMS7003;66145;45.188;5.712;2023-05-18T11:05:24;3.00;3.00;2.25
54305;PMS7003;66145;45.188;5.712;2023-05-18T11:07:55;4.75;4.75;3.75
54305;PMS7003;66145;45.188;5.712;2023-05-18T11:10:24;4.75;2.75;1.75
54305;PMS7003;66145;45.188;5.712;2023-05-18T11:13:06;5.25;5.25;3.25
54305;PMS7003;66145;45.188;5.712;2023-05-18T11:21:19;4.00;4.00;3.00
54305;PMS7003;66145;45.188;5.712;2023-05-18T11:26:44;6.25;4.25;2.50
54305;PMS7003;66145;45.188;5.712;2023-05-18T11:29:17;2.00;2.00;2.00
54305;PMS7003;66145;45.188;5.712;2023-05-18T11:31:51;2.50;2.50;2.00
54305;PMS7003;66145;45.188;5.712;2023-05-18T11:34:37;6.00;4.75;3.00
54305;PMS7003;66145;45.188;5.712;2023-05-18T11:37:12;4.00;4.00;3.00
54305;PMS7003;66145;45.188;5.712;2023-05-18T11:39:39;3.00;3.00;2.25
54305;PMS7003;66145;45.188;5.712;2023-05-18T11:42:05;4.00;4.00;3.00
54305;PMS7003;66145;45.188;5.712;2023-05-18T11:44:32;4.00;4.00;4.00
54305;PMS7003;66145;45.188;5.712;2023-05-18T11:52:04;4.00;4.00;3.00
54305;PMS7003;66145;45.188;5.712;2023-05-18T11:54:54;4.00;4.00;3.00
54305;PMS7003;66145;45.188;5.712;2023-05-18T11:59:58;5.25;5.25;4.75
54305;PMS7003;66145;45.188;5.712;2023-05-18T12:02:34;8.25;8.25;6.75
54305;PMS7003;66145;45.188;5.712;2023-05-18T12:05:00;6.50;6.50;4.50
54305;PMS7003;66145;45.188;5.712;2023-05-18T12:07:27;8.25;8.25;6.00
54305;PMS7003;66145;45.188;5.712;2023-05-18T12:10:00;7.50;7.25;5.25
54305;PMS7003;66145;45.188;5.712;2023-05-18T12:12:27;8.50;6.50;5.25
54305;PMS7003;66145;45.188;5.712;2023-05-18T12:14:57;6.00;6.00;4.00
54305;PMS7003;66145;45.188;5.712;2023-05-18T12:20:05;8.75;7.00;5.25
54305;PMS7003;66145;45.188;5.712;2023-05-18T12:22:45;5.75;5.75;4.00
54305;PMS7003;66145;45.188;5.712;2023-05-18T12:25:16;7.00;7.00;5.50
54305;PMS7003;66145;45.188;5.712;2023-05-18T12:27:43;5.75;5.75;4.00
54305;PMS7003;66145;45.188;5.712;2023-05-18T12:32:46;7.00;7.00;6.00
54305;PMS7003;66145;45.188;5.712;2023-05-18T12:35:15;7.50;7.50;6.00
54305;PMS7003;66145;45.188;5.712;2023-05-18T12:37:44;7.00;7.00;6.00
54305;PMS7003;66145;45.188;5.712;2023-05-18T12:40:12;7.00;7.00;5.25
54305;PMS7003;66145;45.188;5.712;2023-05-18T12:42:38;8.75;8.75;5.75
54305;PMS7003;66145;45.188;5.712;2023-05-18T12:45:03;8.00;8.00;6.33
54305;PMS7003;66145;45.188;5.712;2023-05-18T12:47:31;6.50;6.50;4.75
54305;PMS7003;66145;45.188;5.712;2023-05-18T12:50:00;7.25;7.25;5.25
54305;PMS7003;66145;45.188;5.712;2023-05-18T12:52:26;6.75;5.25;4.25
54305;PMS7003;66145;45.188;5.712;2023-05-18T12:54:55;7.67;7.67;6.67
54305;PMS7003;66145;45.188;5.712;2023-05-18T12:57:25;7.25;7.25;5.75
54305;PMS7003;66145;45.188;5.712;2023-05-18T12:59:54;6.00;6.00;5.00
54305;PMS7003;66145;45.188;5.712;2023-05-18T13:05:01;8.00;8.00;6.00
54305;PMS7003;66145;45.188;5.712;2023-05-18T13:07:39;7.25;6.50;5.00
54305;PMS7003;66145;45.188;5.712;2023-05-18T13:10:14;7.00;7.00;6.00
54305;PMS7003;66145;45.188;5.712;2023-05-18T13:12:46;5.50;5.50;4.50
54305;PMS7003;66145;45.188;5.712;2023-05-18T13:15:18;8.75;7.00;5.75
54305;PMS7003;66145;45.188;5.712;2023-05-18T13:18:01;6.25;6.25;4.00
54305;PMS7003;66145;45.188;5.712;2023-05-18T13:20:32;8.25;7.00;6.00
54305;PMS7003;66145;45.188;5.712;2023-05-18T13:23:03;5.50;5.50;5.00
54305;PMS7003;66145;45.188;5.712;2023-05-18T13:25:31;5.75;5.75;4.75
54305;PMS7003;66145;45.188;5.712;2023-05-18T13:27:56;6.33;6.33;5.00
54305;PMS7003;66145;45.188;5.712;2023-05-18T13:30:22;6.33;6.33;5.00
54305;PMS7003;66145;45.188;5.712;2023-05-18T13:32:48;7.00;6.00;4.00
54305;PMS7003;66145;45.188;5.712;2023-05-18T13:35:14;7.50;7.50;5.75
54305;PMS7003;66145;45.188;5.712;2023-05-18T13:37:42;7.75;7.25;5.00
54305;PMS7003;66145;45.188;5.712;2023-05-18T13:40:09;5.50;5.50;4.00
54305;PMS7003;66145;45.188;5.712;2023-05-18T13:42:35;6.67;6.67;5.00
54305;PMS7003;66145;45.188;5.712;2023-05-18T13:45:00;5.00;5.00;4.33
54305;PMS7003;66145;45.188;5.712;2023-05-18T13:47:25;7.67;6.00;4.00
54305;PMS7003;66145;45.188;5.712;2023-05-18T13:49:51;6.33;6.33;5.00
54305;PMS7003;66145;45.188;5.712;2023-05-18T13:52:16;9.33;7.00;5.00
54305;PMS7003;66145;45.188;5.712;2023-05-18T13:54:41;6.00;6.00;4.33
54305;PMS7003;66145;45.188;5.712;2023-05-18T13:57:07;5.00;5.00;4.00
54305;PMS7003;66145;45.188;5.712;2023-05-18T13:59:32;7.33;6.67;4.67
54305;PMS7003;66145;45.188;5.712;2023-05-18T14:01:58;7.67;6.67;4.67
54305;PMS7003;66145;45.188;5.712;2023-05-18T14:04:27;6.25;6.25;5.75
54305;PMS7003;66145;45.188;5.712;2023-05-18T14:06:52;5.00;5.00;4.00
54305;PMS7003;66145;45.188;5.712;2023-05-18T14:09:18;6.00;6.00;5.00
54305;PMS7003;66145;45.188;5.712;2023-05-18T14:11:43;9.00;8.00;6.00
54305;PMS7003;66145;45.188;5.712;2023-05-18T14:14:09;8.00;6.67;5.00
54305;PMS7003;66145;45.188;5.712;2023-05-18T14:16:34;5.67;5.67;4.33
54305;PMS7003;66145;45.188;5.712;2023-05-18T14:19:00;6.00;6.00;4.50
54305;PMS7003;66145;45.188;5.712;2023-05-18T14:21:26;7.67;6.67;5.00
54305;PMS7003;66145;45.188;5.712;2023-05-18T14:23:51;6.00;5.67;4.67
54305;PMS7003;66145;45.188;5.712;2023-05-18T14:26:16;7.33;6.67;5.00
54305;PMS7003;66145;45.188;5.712;2023-05-18T14:28:42;7.00;7.00;5.33
54305;PMS7003;66145;45.188;5.712;2023-05-18T14:31:07;6.00;6.00;5.00
54305;PMS7003;66145;45.188;5.712;2023-05-18T14:33:32;7.00;5.67;4.00
54305;PMS7003;66145;45.188;5.712;2023-05-18T14:35:58;6.00;6.00;5.00
54305;PMS7003;66145;45.188;5.712;2023-05-18T14:38:24;6.50;5.75;4.25
54305;PMS7003;66145;45.188;5.712;2023-05-18T14:40:51;6.50;6.50;4.25
54305;PMS7003;66145;45.188;5.712;2023-05-18T14:43:17;5.25;5.25;4.50
54305;PMS7003;66145;45.188;5.712;2023-05-18T14:45:42;4.00;4.00;3.67
54305;PMS7003;66145;45.188;5.712;2023-05-18T14:48:08;3.33;3.00;1.67
54305;PMS7003;66145;45.188;5.712;2023-05-18T14:50:34;5.75;5.75;4.50
54305;PMS7003;66145;45.188;5.712;2023-05-18T14:53:00;6.33;6.00;5.00
54305;PMS7003;66145;45.188;5.712;2023-05-18T14:55:25;6.33;6.33;4.00